createdAt,value
2023-01-07T00:00:09.777Z,100.00
2023-01-07T00:02:41.664Z,100.00
2023-01-07T00:05:10.969Z,100.00
2023-01-07T00:07:39.557Z,100.00
2023-01-07T00:10:08.553Z,100.00
2023-01-07T00:12:37.071Z,100.00
2023-01-07T00:15:06.412Z,100.00
2023-01-07T00:17:34.935Z,100.00
2023-01-07T00:20:05.730Z,100.00
2023-01-07T00:22:34.004Z,100.00
2023-01-07T00:25:03.237Z,100.00
2023-01-07T00:27:31.839Z,100.00
2023-01-07T00:30:00.467Z,100.00
2023-01-07T00:32:50.877Z,100.00
2023-01-07T00:35:23.273Z,100.00
2023-01-07T00:37:52.729Z,100.00
2023-01-07T00:40:21.936Z,100.00
2023-01-07T00:43:01.812Z,100.00
2023-01-07T00:45:32.521Z,100.00
2023-01-07T00:48:02.728Z,100.00
2023-01-07T00:50:35.654Z,100.00
2023-01-07T00:53:04.548Z,100.00
2023-01-07T00:55:33.410Z,100.00
2023-01-07T00:58:02.395Z,100.00
2023-01-07T01:00:30.951Z,100.00
2023-01-07T01:03:00.257Z,100.00
2023-01-07T01:05:29.169Z,100.00
2023-01-07T01:07:59.217Z,100.00
2023-01-07T01:10:27.924Z,100.00
2023-01-07T01:12:56.174Z,100.00
2023-01-07T01:15:24.804Z,100.00
2023-01-07T01:17:53.663Z,100.00
2023-01-07T01:20:22.324Z,100.00
2023-01-07T01:22:50.917Z,100.00
2023-01-07T01:25:20.668Z,100.00
2023-01-07T01:27:49.205Z,100.00
2023-01-07T01:30:17.913Z,100.00
2023-01-07T01:32:46.158Z,100.00
2023-01-07T01:35:15.634Z,100.00
2023-01-07T01:37:44.749Z,100.00
2023-01-07T01:40:13.743Z,100.00
2023-01-07T01:42:43.344Z,100.00
2023-01-07T01:45:15.979Z,100.00
2023-01-07T01:47:48.115Z,100.00
2023-01-07T01:50:22.887Z,100.00
2023-01-07T01:52:55.307Z,100.00
2023-01-07T01:55:30.133Z,100.00
2023-01-07T01:58:06.460Z,100.00
2023-01-07T02:00:36.249Z,100.00
2023-01-07T02:03:10.099Z,100.00
2023-01-07T02:05:42.896Z,100.00
2023-01-07T02:08:11.518Z,100.00
2023-01-07T02:10:41.970Z,100.00
2023-01-07T02:13:33.972Z,100.00
2023-01-07T02:16:12.266Z,100.00
2023-01-07T02:19:05.038Z,100.00
2023-01-07T02:21:45.374Z,100.00
2023-01-07T02:24:56.575Z,100.00
2023-01-07T02:28:02.385Z,100.00
2023-01-07T02:31:19.668Z,100.00
2023-01-07T02:34:03.940Z,100.00
2023-01-07T02:36:43.461Z,100.00
2023-01-07T02:39:30.937Z,100.00
2023-01-07T02:42:01.010Z,100.00
2023-01-07T02:44:50.289Z,100.00
2023-01-07T02:47:24.843Z,100.00
2023-01-07T02:49:55.149Z,100.00
2023-01-07T02:52:26.298Z,100.00
2023-01-07T02:54:59.633Z,100.00
2023-01-07T02:58:16.730Z,100.00
2023-01-07T03:01:19.334Z,100.00
2023-01-07T03:04:18.447Z,100.00
2023-01-07T03:07:21.854Z,100.00
2023-01-07T03:09:58.811Z,100.00
2023-01-07T03:12:35.653Z,100.00
2023-01-07T03:15:13.065Z,100.00
2023-01-07T03:17:49.679Z,100.00
2023-01-07T03:20:21.102Z,100.00
2023-01-07T03:22:52.777Z,100.00
2023-01-07T03:25:23.382Z,100.00
2023-01-07T03:27:54.505Z,100.00
2023-01-07T03:30:25.884Z,100.00
2023-01-07T03:33:00.874Z,100.00
2023-01-07T03:35:32.910Z,100.00
2023-01-07T03:38:04.349Z,100.00
2023-01-07T03:40:33.510Z,100.00
2023-01-07T03:43:01.288Z,100.00
2023-01-07T03:45:30.266Z,100.00
2023-01-07T03:48:00.732Z,100.00
2023-01-07T03:50:36.205Z,100.00
2023-01-07T03:53:06.178Z,100.00
2023-01-07T03:55:37.395Z,100.00
2023-01-07T03:58:05.967Z,100.00
2023-01-07T04:00:34.550Z,100.00
2023-01-07T04:03:13.125Z,100.00
2023-01-07T04:05:44.969Z,100.00
2023-01-07T04:08:15.647Z,100.00
2023-01-07T04:10:44.778Z,100.00
2023-01-07T04:13:14.912Z,100.00
2023-01-07T04:15:46.427Z,100.00
2023-01-07T04:18:14.645Z,100.00
2023-01-07T04:20:45.790Z,100.00
2023-01-07T04:23:16.283Z,100.00
2023-01-07T04:25:48.351Z,100.00
2023-01-07T04:28:20.429Z,100.00
2023-01-07T04:30:49.271Z,100.00
2023-01-07T04:33:17.960Z,100.00
2023-01-07T04:35:47.634Z,100.00
2023-01-07T04:38:18.776Z,100.00
2023-01-07T04:40:47.364Z,100.00
2023-01-07T04:43:16.055Z,100.00
2023-01-07T04:45:44.806Z,100.00
2023-01-07T04:48:15.851Z,100.00
2023-01-07T04:50:44.807Z,100.00
2023-01-07T04:53:14.114Z,100.00
2023-01-07T04:55:46.456Z,100.00
2023-01-07T04:58:15.433Z,100.00
2023-01-07T05:00:44.018Z,100.00
2023-01-07T05:03:12.730Z,100.00
2023-01-07T05:05:41.873Z,100.00
2023-01-07T05:08:10.199Z,100.00
2023-01-07T05:10:38.804Z,100.00
2023-01-07T05:13:08.762Z,100.00
2023-01-07T05:15:37.455Z,100.00
2023-01-07T05:18:07.239Z,100.00
2023-01-07T05:20:36.314Z,100.00
2023-01-07T05:23:05.955Z,100.00
2023-01-07T05:25:36.267Z,100.00
2023-01-07T05:28:04.925Z,100.00
2023-01-07T05:30:38.719Z,100.00
2023-01-07T05:33:08.871Z,100.00
2023-01-07T05:35:38.145Z,100.00
2023-01-07T05:38:07.724Z,100.00
2023-01-07T05:40:36.230Z,100.00
2023-01-07T05:43:04.797Z,100.00
2023-01-07T05:45:34.926Z,100.00
2023-01-07T05:48:04.763Z,100.00
2023-01-07T05:50:33.307Z,100.00
2023-01-07T05:53:02.056Z,100.00
2023-01-07T05:55:30.627Z,100.00
2023-01-07T05:57:59.146Z,100.00
2023-01-07T06:00:27.357Z,100.00
2023-01-07T06:02:56.165Z,100.00
2023-01-07T06:05:25.746Z,100.00
2023-01-07T06:07:53.930Z,100.00
2023-01-07T06:10:22.472Z,100.00
2023-01-07T06:12:51.246Z,100.00
2023-01-07T06:15:19.771Z,100.00
2023-01-07T06:17:48.326Z,100.00
2023-01-07T06:20:16.963Z,100.00
2023-01-07T06:22:46.627Z,100.00
2023-01-07T06:25:15.251Z,100.00
2023-01-07T06:27:43.665Z,100.00
2023-01-07T06:30:13.147Z,100.00
2023-01-07T06:32:43.252Z,100.00
2023-01-07T06:35:13.077Z,100.00
2023-01-07T06:37:41.603Z,100.00
2023-01-07T06:40:12.865Z,100.00
2023-01-07T06:42:41.497Z,100.00
2023-01-07T06:45:11.411Z,100.00
2023-01-07T06:47:40.068Z,100.00
2023-01-07T06:50:09.687Z,100.00
2023-01-07T06:52:38.440Z,100.00
2023-01-07T06:55:07.419Z,100.00
2023-01-07T06:57:37.083Z,100.00
2023-01-07T07:00:06.500Z,100.00
2023-01-07T07:02:35.316Z,100.00
2023-01-07T07:05:03.898Z,100.00
2023-01-07T07:07:33.106Z,100.00
2023-01-07T07:10:04.553Z,100.00
2023-01-07T07:12:33.147Z,100.00
2023-01-07T07:15:02.729Z,100.00
2023-01-07T07:17:31.373Z,100.00
2023-01-07T07:19:59.900Z,100.00
2023-01-07T07:22:28.721Z,100.00
2023-01-07T07:24:57.243Z,100.00
2023-01-07T07:27:25.770Z,100.00
2023-01-07T07:29:54.277Z,100.00
2023-01-07T07:32:28.320Z,100.00
2023-01-07T07:34:56.965Z,100.00
2023-01-07T07:37:25.497Z,100.00
2023-01-07T07:39:54.039Z,100.00
2023-01-07T07:42:22.553Z,100.00
2023-01-07T07:44:51.149Z,100.00
2023-01-07T07:47:19.933Z,100.00
2023-01-07T07:49:50.203Z,100.00
2023-01-07T07:52:18.797Z,100.00
2023-01-07T07:54:47.323Z,100.00
2023-01-07T07:57:15.534Z,100.00
2023-01-07T07:59:44.066Z,100.00
2023-01-07T08:02:14.801Z,100.00
2023-01-07T08:04:43.338Z,100.00
2023-01-07T08:07:13.699Z,100.00
2023-01-07T08:10:00.938Z,100.00
2023-01-07T08:12:29.128Z,100.00
2023-01-07T08:14:58.065Z,100.00
2023-01-07T08:17:26.974Z,100.00
2023-01-07T08:19:55.244Z,100.00
2023-01-07T08:22:24.823Z,100.00
2023-01-07T08:24:53.403Z,100.00
2023-01-07T08:27:21.634Z,100.00
2023-01-07T08:29:50.206Z,100.00
2023-01-07T08:32:18.749Z,100.00
2023-01-07T08:34:47.316Z,100.00
2023-01-07T08:37:15.501Z,100.00
2023-01-07T08:39:45.229Z,100.00
2023-01-07T08:42:13.750Z,100.00
2023-01-07T08:44:41.950Z,100.00
2023-01-07T08:47:10.476Z,100.00
2023-01-07T08:49:38.964Z,100.00
2023-01-07T08:52:07.489Z,100.00
2023-01-07T08:54:36.016Z,100.00
2023-01-07T08:57:05.616Z,100.00
2023-01-07T08:59:34.123Z,100.00
2023-01-07T09:02:02.742Z,100.00
2023-01-07T09:04:31.390Z,100.00
2023-01-07T09:06:59.996Z,100.00
2023-01-07T09:09:28.758Z,100.00
2023-01-07T09:11:56.975Z,100.00
2023-01-07T09:14:26.841Z,100.00
2023-01-07T09:16:55.399Z,100.00
2023-01-07T09:19:24.220Z,100.00
2023-01-07T09:21:52.739Z,100.00
2023-01-07T09:24:21.114Z,100.00
2023-01-07T09:26:50.474Z,100.00
2023-01-07T09:29:19.321Z,100.00
2023-01-07T09:31:49.082Z,100.00
2023-01-07T09:34:17.663Z,100.00
2023-01-07T09:36:45.853Z,100.00
2023-01-07T09:39:14.475Z,100.00
2023-01-07T09:41:56.743Z,100.00
2023-01-07T09:44:46.614Z,100.00
2023-01-07T09:47:23.233Z,100.00
2023-01-07T09:49:57.562Z,100.00
2023-01-07T09:52:33.043Z,100.00
2023-01-07T09:55:13.594Z,100.00
2023-01-07T09:57:41.975Z,100.00
2023-01-07T10:00:18.532Z,100.00
2023-01-07T10:03:07.405Z,100.00
2023-01-07T10:05:46.314Z,100.00
2023-01-07T10:08:30.312Z,100.00
2023-01-07T10:11:12.149Z,100.00
2023-01-07T10:14:03.712Z,100.00
2023-01-07T10:16:44.565Z,100.00
2023-01-07T10:19:25.125Z,99.84
2023-01-07T10:21:58.939Z,100.00
2023-01-07T10:24:29.528Z,100.00
2023-01-07T10:27:02.448Z,100.00
2023-01-07T10:29:36.387Z,99.34
2023-01-07T10:32:14.406Z,99.10
2023-01-07T10:34:48.579Z,99.47
2023-01-07T10:37:28.092Z,98.62
2023-01-07T10:40:17.135Z,99.57
2023-01-07T10:42:52.907Z,99.07
2023-01-07T10:45:57.160Z,99.98
2023-01-07T10:49:10.716Z,99.08
2023-01-07T10:52:05.094Z,98.32
2023-01-07T10:54:55.451Z,97.86
2023-01-07T10:57:28.674Z,98.20
2023-01-07T11:00:02.469Z,98.76
2023-01-07T11:02:31.561Z,98.04
2023-01-07T11:05:00.737Z,98.79
2023-01-07T11:07:43.481Z,98.07
2023-01-07T11:10:18.752Z,97.48
2023-01-07T11:12:50.953Z,98.70
2023-01-07T11:15:26.003Z,98.57
2023-01-07T11:17:57.627Z,97.48
2023-01-07T11:20:47.717Z,97.68
2023-01-07T11:23:31.017Z,98.29
2023-01-07T11:26:18.761Z,98.56
2023-01-07T11:28:54.346Z,97.70
2023-01-07T11:31:24.852Z,98.55
2023-01-07T11:34:02.305Z,97.35
2023-01-07T11:36:43.290Z,95.85
2023-01-07T11:39:20.291Z,97.78
2023-01-07T11:41:57.957Z,96.69
2023-01-07T11:44:27.153Z,97.72
2023-01-07T11:46:56.260Z,97.06
2023-01-07T11:49:28.980Z,98.78
2023-01-07T11:51:58.387Z,97.21
2023-01-07T11:54:30.012Z,96.72
2023-01-07T11:57:14.575Z,94.88
2023-01-07T11:59:43.123Z,95.84
2023-01-07T12:02:26.699Z,95.28
2023-01-07T12:05:22.691Z,95.57
2023-01-07T12:07:52.724Z,96.53
2023-01-07T12:10:29.980Z,96.20
2023-01-07T12:13:00.828Z,97.19
2023-01-07T12:15:32.659Z,96.95
2023-01-07T12:18:45.453Z,95.68
2023-01-07T12:21:40.799Z,95.62
2023-01-07T12:24:43.223Z,95.13
2023-01-07T12:27:31.941Z,94.76
2023-01-07T12:30:39.556Z,95.10
2023-01-07T12:33:25.550Z,93.61
2023-01-07T12:35:57.434Z,93.72
2023-01-07T12:38:40.152Z,95.61
2023-01-07T12:41:19.570Z,94.58
2023-01-07T12:44:01.127Z,94.62
2023-01-07T12:46:36.639Z,94.91
2023-01-07T12:49:11.373Z,94.37
2023-01-07T12:51:45.309Z,94.92
2023-01-07T12:54:19.698Z,94.83
2023-01-07T12:56:56.017Z,94.34
2023-01-07T12:59:46.255Z,94.67
2023-01-07T13:02:32.045Z,94.60
2023-01-07T13:05:15.508Z,93.34
2023-01-07T13:07:50.611Z,93.43
2023-01-07T13:10:27.588Z,92.33
2023-01-07T13:12:59.734Z,93.52
2023-01-07T13:15:30.248Z,94.22
2023-01-07T13:18:00.538Z,94.56
2023-01-07T13:20:56.577Z,95.22
2023-01-07T13:23:34.757Z,94.68
2023-01-07T13:26:21.997Z,93.57
2023-01-07T13:29:28.753Z,94.51
2023-01-07T13:32:38.521Z,93.39
2023-01-07T13:35:34.732Z,94.49
2023-01-07T13:38:24.661Z,93.63
2023-01-07T13:41:18.690Z,93.49
2023-01-07T13:44:09.927Z,93.04
2023-01-07T13:46:42.544Z,92.65
2023-01-07T13:49:27.924Z,94.09
2023-01-07T13:51:57.584Z,92.92
2023-01-07T13:54:56.103Z,92.53
2023-01-07T13:57:44.373Z,91.55
2023-01-07T14:00:48.027Z,92.44
2023-01-07T14:03:43.839Z,93.91
2023-01-07T14:06:48.562Z,94.13
2023-01-07T14:09:38.190Z,93.38
2023-01-07T14:13:02.654Z,93.84
2023-01-07T14:16:01.748Z,94.71
2023-01-07T14:19:15.092Z,94.31
2023-01-07T14:22:06.116Z,93.81
2023-01-07T14:25:23.375Z,94.47
2023-01-07T14:28:27.123Z,93.34
2023-01-07T14:30:56.200Z,92.77
2023-01-07T14:33:28.272Z,92.79
2023-01-07T14:36:00.598Z,93.10
2023-01-07T14:39:30.248Z,92.64
2023-01-07T14:42:44.637Z,91.43
2023-01-07T14:45:55.667Z,90.64
2023-01-07T14:48:36.211Z,92.72
2023-01-07T14:51:33.071Z,90.06
2023-01-07T14:54:53.153Z,91.19
2023-01-07T14:57:36.231Z,90.03
2023-01-07T15:00:49.209Z,91.07
2023-01-07T15:03:40.582Z,90.42
2023-01-07T15:06:24.425Z,91.37
2023-01-07T15:09:18.910Z,91.84
2023-01-07T15:12:06.419Z,90.22
2023-01-07T15:15:00.599Z,90.13
2023-01-07T15:17:29.389Z,90.28
2023-01-07T15:20:00.505Z,90.30
2023-01-07T15:23:04.205Z,91.19
2023-01-07T15:25:50.510Z,92.39
2023-01-07T15:28:28.723Z,92.50
2023-01-07T15:31:07.145Z,92.87
2023-01-07T15:33:59.210Z,93.47
2023-01-07T15:36:30.539Z,94.15
2023-01-07T15:39:02.124Z,94.89
2023-01-07T15:41:34.040Z,94.81
2023-01-07T15:44:05.444Z,95.88
2023-01-07T15:46:34.947Z,94.93
2023-01-07T15:49:23.427Z,95.42
2023-01-07T15:51:57.161Z,95.68
2023-01-07T15:54:32.391Z,95.72
2023-01-07T15:57:08.281Z,95.89
2023-01-07T15:59:43.813Z,95.99
2023-01-07T16:02:24.262Z,96.23
2023-01-07T16:04:54.163Z,96.23
2023-01-07T16:07:28.420Z,97.04
2023-01-07T16:09:58.709Z,97.32
2023-01-07T16:12:34.121Z,97.58
2023-01-07T16:15:04.908Z,98.25
2023-01-07T16:17:35.141Z,98.45
2023-01-07T16:20:29.310Z,98.36
2023-01-07T16:23:20.602Z,98.08
2023-01-07T16:25:56.063Z,98.09
2023-01-07T16:28:28.747Z,98.18
2023-01-07T16:30:58.753Z,97.60
2023-01-07T16:33:29.482Z,98.29
2023-01-07T16:36:02.286Z,98.90
2023-01-07T16:38:33.676Z,98.86
2023-01-07T16:41:02.346Z,99.44
2023-01-07T16:43:45.099Z,99.48
2023-01-07T16:46:29.987Z,99.80
2023-01-07T16:49:29.564Z,99.46
2023-01-07T16:52:08.006Z,98.79
2023-01-07T16:54:40.138Z,99.26
2023-01-07T16:57:33.403Z,99.35
2023-01-07T17:00:05.989Z,98.70
2023-01-07T17:02:40.364Z,98.68
2023-01-07T17:05:19.252Z,99.18
2023-01-07T17:07:50.774Z,99.06
2023-01-07T17:10:26.721Z,99.22
2023-01-07T17:13:01.826Z,99.42
2023-01-07T17:15:39.317Z,99.72
2023-01-07T17:18:30.057Z,100.00
2023-01-07T17:21:00.396Z,100.00
2023-01-07T17:23:45.591Z,100.00
2023-01-07T17:26:24.039Z,100.00
2023-01-07T17:28:54.959Z,100.00
2023-01-07T17:31:24.439Z,100.00
2023-01-07T17:33:54.028Z,100.00
2023-01-07T17:36:25.331Z,100.00
2023-01-07T17:38:54.300Z,100.00
2023-01-07T17:41:42.665Z,100.00
2023-01-07T17:44:14.670Z,100.00
2023-01-07T17:46:43.452Z,100.00
2023-01-07T17:49:12.739Z,100.00
2023-01-07T17:51:44.701Z,100.00
2023-01-07T17:54:21.026Z,100.00
2023-01-07T17:56:51.180Z,100.00
2023-01-07T17:59:22.605Z,100.00
2023-01-07T18:01:52.490Z,100.00
2023-01-07T18:04:22.313Z,100.00
2023-01-07T18:06:50.845Z,100.00
2023-01-07T18:09:19.363Z,100.00
2023-01-07T18:12:05.321Z,100.00
2023-01-07T18:14:34.983Z,100.00
2023-01-07T18:17:03.580Z,100.00
2023-01-07T18:19:32.081Z,100.00
2023-01-07T18:22:00.610Z,100.00
2023-01-07T18:24:28.807Z,100.00
2023-01-07T18:26:57.004Z,100.00
2023-01-07T18:29:25.572Z,100.00
2023-01-07T18:31:56.248Z,100.00
2023-01-07T18:34:24.940Z,100.00
2023-01-07T18:36:54.356Z,100.00
2023-01-07T18:39:22.939Z,100.00
2023-01-07T18:41:53.778Z,100.00
2023-01-07T18:44:25.113Z,100.00
2023-01-07T18:46:54.729Z,100.00
2023-01-07T18:49:23.587Z,100.00
2023-01-07T18:51:52.174Z,100.00
2023-01-07T18:54:20.756Z,100.00
2023-01-07T18:56:49.413Z,100.00
2023-01-07T18:59:18.037Z,100.00
2023-01-07T19:01:46.692Z,100.00
2023-01-07T19:04:16.671Z,100.00
2023-01-07T19:06:45.252Z,100.00
2023-01-07T19:09:13.787Z,100.00
2023-01-07T19:11:42.353Z,100.00
2023-01-07T19:14:10.998Z,100.00
2023-01-07T19:16:39.787Z,100.00
2023-01-07T19:19:09.061Z,100.00
2023-01-07T19:21:38.758Z,100.00
2023-01-07T19:24:08.112Z,100.00
2023-01-07T19:26:36.761Z,100.00
2023-01-07T19:29:05.281Z,99.65
2023-01-07T19:31:34.024Z,98.66
2023-01-07T19:34:02.987Z,98.03
2023-01-07T19:36:32.059Z,97.31
2023-01-07T19:39:01.677Z,97.43
2023-01-07T19:41:30.284Z,97.99
2023-01-07T19:44:00.830Z,98.38
2023-01-07T19:46:29.638Z,98.96
2023-01-07T19:48:58.124Z,99.17
2023-01-07T19:51:26.752Z,99.26
2023-01-07T19:53:55.272Z,99.16
2023-01-07T19:56:24.957Z,99.19
2023-01-07T19:58:54.673Z,99.27
2023-01-07T20:01:26.294Z,98.23
2023-01-07T20:03:55.844Z,98.17
2023-01-07T20:06:26.675Z,97.96
2023-01-07T20:08:56.125Z,97.61
2023-01-07T20:11:26.303Z,97.56
2023-01-07T20:13:54.852Z,96.46
2023-01-07T20:16:25.113Z,96.15
2023-01-07T20:18:55.948Z,95.81
2023-01-07T20:21:26.809Z,95.21
2023-01-07T20:23:55.863Z,95.10
2023-01-07T20:26:28.162Z,94.98
2023-01-07T20:28:57.193Z,95.18
2023-01-07T20:31:27.346Z,95.58
2023-01-07T20:33:57.431Z,95.10
2023-01-07T20:36:28.498Z,95.39
2023-01-07T20:38:56.959Z,94.86
2023-01-07T20:41:28.816Z,94.70
2023-01-07T20:43:59.471Z,94.68
2023-01-07T20:46:29.907Z,94.69
2023-01-07T20:48:59.436Z,94.97
2023-01-07T20:51:28.561Z,95.25
2023-01-07T20:53:57.189Z,95.10
2023-01-07T20:56:31.730Z,95.38
2023-01-07T20:59:01.280Z,96.73
2023-01-07T21:01:30.539Z,96.00
2023-01-07T21:04:01.345Z,96.35
2023-01-07T21:06:29.680Z,96.63
2023-01-07T21:08:57.923Z,96.10
2023-01-07T21:11:27.804Z,95.72
2023-01-07T21:13:56.648Z,96.46
2023-01-07T21:16:27.427Z,96.68
2023-01-07T21:18:58.306Z,96.93
2023-01-07T21:21:26.932Z,97.50
2023-01-07T21:23:55.823Z,97.05
2023-01-07T21:26:24.855Z,97.20
2023-01-07T21:28:56.762Z,97.16
2023-01-07T21:31:26.528Z,97.13
2023-01-07T21:33:56.441Z,97.63
2023-01-07T21:36:26.943Z,97.69
2023-01-07T21:38:57.474Z,98.20
2023-01-07T21:41:27.427Z,98.00
2023-01-07T21:43:57.738Z,97.95
2023-01-07T21:46:26.643Z,97.65
2023-01-07T21:48:55.769Z,98.27
2023-01-07T21:51:26.546Z,98.88
2023-01-07T21:53:56.611Z,98.96
2023-01-07T21:56:27.491Z,98.77
2023-01-07T21:58:57.145Z,97.89
2023-01-07T22:01:28.755Z,98.91
2023-01-07T22:03:59.458Z,99.08
2023-01-07T22:06:30.449Z,98.13
2023-01-07T22:09:01.301Z,98.22
2023-01-07T22:11:30.006Z,99.44
2023-01-07T22:14:01.464Z,99.98
2023-01-07T22:16:31.688Z,99.22
2023-01-07T22:19:01.599Z,99.25
2023-01-07T22:21:30.497Z,99.20
2023-01-07T22:23:59.034Z,99.82
2023-01-07T22:26:27.582Z,99.54
2023-01-07T22:29:02.650Z,99.20
2023-01-07T22:31:33.794Z,99.19
2023-01-07T22:34:02.391Z,98.82
2023-01-07T22:36:37.837Z,98.38
2023-01-07T22:39:12.248Z,98.57
2023-01-07T22:41:41.269Z,98.53
2023-01-07T22:44:15.561Z,98.57
2023-01-07T22:46:49.023Z,99.26
2023-01-07T22:49:18.070Z,98.90
2023-01-07T22:51:49.877Z,99.24
2023-01-07T22:54:19.066Z,98.99
2023-01-07T22:56:47.875Z,99.53
2023-01-07T22:59:17.933Z,99.21
2023-01-07T23:01:46.451Z,99.86
2023-01-07T23:04:14.798Z,99.72
2023-01-07T23:06:43.404Z,100.00
2023-01-07T23:09:11.643Z,100.00
2023-01-07T23:11:48.847Z,100.00
2023-01-07T23:14:20.267Z,100.00
2023-01-07T23:16:49.250Z,100.00
2023-01-07T23:19:18.404Z,100.00
2023-01-07T23:21:50.520Z,100.00
2023-01-07T23:24:19.228Z,100.00
2023-01-07T23:26:48.682Z,100.00
2023-01-07T23:29:19.360Z,100.00
2023-01-07T23:31:47.833Z,100.00
2023-01-07T23:34:17.092Z,100.00
2023-01-07T23:36:45.668Z,100.00
2023-01-07T23:39:14.076Z,100.00
2023-01-07T23:41:42.575Z,100.00
2023-01-07T23:44:11.154Z,100.00
2023-01-07T23:46:40.778Z,100.00
2023-01-07T23:49:09.362Z,100.00
2023-01-07T23:51:37.911Z,100.00
2023-01-07T23:54:06.614Z,100.00
2023-01-07T23:56:35.270Z,100.00
2023-01-07T23:59:04.005Z,100.00
